Observations for BENSON RAF, United Kingdom (EGUB)

EGUB 180250Z AUTO 14006KT 9999 // SCT012/// 04/03 Q1022 
EGUB 180150Z AUTO 14006KT 9999 // FEW050/// 03/03 Q1022 
EGUB 180050Z AUTO 16005KT 9999 // BKN048/// 04/03 Q1022 
EGUB 172350Z AUTO 19005KT 9999 // SCT035/// 05/03 Q1022 
EGUB 172250Z AUTO 17005KT 9999 // FEW050/// 04/03 Q1022 
EGUB 172150Z AUTO 18008KT 9999 // BKN048/// 06/04 Q1022 
EGUB 172050Z AUTO 18007KT 9999 // BKN042/// 05/03 Q1022 
EGUB 171950Z AUTO 18006KT 9999 // SCT043/// 04/02 Q1022 
EGUB 171850Z AUTO 16005KT 9999 // FEW050/// BKN170/// 04/02 Q1022   
EGUB 171750Z AUTO 18005KT 9999 // FEW038/// BKN049/// 07/03 Q1022   
EGUB 171650Z AUTO 18005KT 9999 // SCT028/// BKN047/// 08/03 Q1021   
EGUB 171550Z AUTO 19008KT 9999 // BKN029/// BKN035/// BKN041/// 09/02 Q1021 
EGUB 171450Z 20007KT 9999 BKN030 SCT070 09/02 Q1021 BLU NOSIG   
EGUB 171350Z 21008KT 9999 FEW035 BKN070 10/01 Q1021 BLU TEMPO SCT022 WHT
EGUB 171250Z 21009KT 9999 FEW025 BKN080 09/02 Q1022 BLU TEMPO SCT022 WHT
EGUB 171150Z 17009KT 9999 FEW022 SCT070 09/03 Q1022 BLU TEMPO SCT020 WHT
EGUB 171050Z 17009KT 9999 FEW020 SCT090 08/04 Q1021 BLU NOSIG   
EGUB 170950Z 18006KT CAVOK 06/03 Q1021 BLU NOSIG
EGUB 170850Z 23001KT CAVOK 04/02 Q1021 BLU NOSIG
EGUB 170750Z 17003KT 9999 FEW030 SCT080 00/M00 Q1021 BLU NOSIG  
EGUB 170650Z AUTO 18004KT 9999 // BKN080/// 02/00 Q1021 
EGUB 170550Z AUTO 20003KT 9999 // OVC100/// 02/02 Q1020 
EGUB 170450Z AUTO 19002KT 9999 // OVC110/// 00/M00 Q1021
EGUB 170350Z AUTO 17003KT 9999 // OVC110/// 01/00 Q1020 
EGUB 170250Z AUTO 15004KT 9999 // SCT140/// 01/00 Q1021